Time;durP1;ratioP1;P1;durP2;ratioP2;P2;SDS_P1;SDS_P2;PMS_P1;PMS_P2;Temp;Humidity;BMP_temperature;BMP_pressure;BME280_temperature;BME280_humidity;BME280_pressure;Samples;Min_cycle;Max_cycle;Signal;HPM_P1;HPM_P2
2022/09/03 00:01:37;;;;;;;;;;;;;;;;;;5054091;28;19916;-61
2022/09/03 00:04:02;;;;;;;;;;;;;;;;;;5081795;28;19919;-61
2022/09/03 00:06:27;;;;;;;;;;;;;;;;;;5081810;28;20292;-61
2022/09/03 00:08:52;;;;;;;;;;;;;;;;;;5054175;28;19912;-61
2022/09/03 00:11:17;;;;;;;;;;;;;;;;;;5075691;28;20254;-61
2022/09/03 00:13:42;;;;;;;;;;;;;;;;;;5072510;28;20466;-61
2022/09/03 00:16:08;;;;;;;;;;;;;;;;;;5060372;28;20471;-61
2022/09/03 00:18:34;;;;;;;;;;;;;;;;;;5079187;28;19913;-61
2022/09/03 00:21:02;;;;;;;;;;;;;;;;;;5089557;28;19919;-61
2022/09/03 00:23:28;;;;;;;;;;;;;;;;;;5080110;28;19972;-60
2022/09/03 00:25:53;;;;;;;;;;;;;;;;;;5066163;28;19912;-61
2022/09/03 00:28:18;;;;;;;;;;;;;;;;;;5078204;28;19916;-60
2022/09/03 00:30:43;;;;;;;;;;;;;;;;;;5082298;28;20345;-61
2022/09/03 00:33:09;;;;;;;;;;;;;;;;;;5074330;28;19927;-60
2022/09/03 00:35:34;;;;;;;;;;;;;;;;;;5071650;28;20323;-60
2022/09/03 00:37:59;;;;;;;;;;;;;;;;;;5078751;28;19920;-61
2022/09/03 00:40:25;;;;;;;;;;;;;;;;;;5082872;28;19924;-59
2022/09/03 00:42:50;;;;;;;;;;;;;;;;;;5069106;28;19912;-61
2022/09/03 00:45:15;;;;;;;;;;;;;;;;;;5078069;28;19931;-61
2022/09/03 00:47:41;;;;;;;;;;;;;;;;;;5067929;28;19920;-61
2022/09/03 00:50:06;;;;;;;;;;;;;;;;;;5076623;28;20298;-60
2022/09/03 00:52:33;;;;;;;;;;;;;;;;;;5088640;28;20352;-60
2022/09/03 00:54:59;;;;;;;;;;;;;;;;;;5083178;28;19981;-61
2022/09/03 00:57:24;;;;;;;;;;;;;;;;;;5070599;28;19970;-61
2022/09/03 00:59:49;;;;;;;;;;;;;;;;;;5080160;28;19919;-61
2022/09/03 01:02:14;;;;;;;;;;;;;;;;;;5077278;28;20018;-61
2022/09/03 01:04:39;;;;;;;;;;;;;;;;;;5059996;28;19912;-60
2022/09/03 01:07:05;;;;;;;;;;;;;;;;;;5053261;28;19979;-61
2022/09/03 01:09:30;;;;;;;;;;;;;;;;;;5071088;28;19913;-61
2022/09/03 01:11:58;;;;;;;;;;;;;;;;;;5068879;28;20372;-61
2022/09/03 01:14:23;;;;;;;;;;;;;;;;;;5085420;28;19923;-62
2022/09/03 01:16:49;;;;;;;;;;;;;;;;;;5064943;28;20360;-62
2022/09/03 01:19:15;;;;;;;;;;;;;;;;;;5075503;28;20300;-62
2022/09/03 01:21:40;;;;;;;;;;;;;;;;;;5080560;28;19923;-61
2022/09/03 01:24:06;;;;;;;;;;;;;;;;;;5086418;28;19912;-62
2022/09/03 01:26:31;;;;;;;;;;;;;;;;;;5070163;28;19970;-62
2022/09/03 01:28:56;;;;;;;;;;;;;;;;;;5059758;28;19955;-62
2022/09/03 01:31:25;;;;;;;;;;;;;;;;;;5063041;28;19912;-60
2022/09/03 01:33:50;;;;;;;;;;;;;;;;;;5061635;28;19999;-60
2022/09/03 01:36:16;;;;;;;;;;;;;;;;;;5069117;28;20392;-61
2022/09/03 01:38:41;;;;;;;;;;;;;;;;;;5058754;28;21321;-61
2022/09/03 01:43:50;;;;;;;;;;;;;;;;;;5076137;28;19939;-61
2022/09/03 01:46:15;;;;;;;;;;;;;;;;;;5079778;28;19916;-61
2022/09/03 01:48:40;;;;;;;;;;;;;;;;;;5085376;28;19965;-61
2022/09/03 01:51:06;;;;;;;;;;;;;;;;;;5085498;28;19912;-61
2022/09/03 01:53:31;;;;;;;;;;;;;;;;;;5089719;28;20369;-61
2022/09/03 01:55:56;;;;;;;;;;;;;;;;;;5084038;28;19934;-61
2022/09/03 01:58:21;;;;;;;;;;;;;;;;;;5062322;28;19934;-61
2022/09/03 02:00:46;;;;;;;;;;;;;;;;;;5084488;28;20383;-61
2022/09/03 02:03:12;;;;;;;;;;;;;;;;;;5088340;28;20399;-61
2022/09/03 02:05:37;;;;;;;;;;;;;;;;;;5083308;28;19912;-61
2022/09/03 02:08:03;;;;;;;;;;;;;;;;;;5084359;28;20364;-61
2022/09/03 02:10:30;;;;;;;;;;;;;;;;;;5056472;28;19957;-61
2022/09/03 02:12:55;;;;;;;;;;;;;;;;;;5093352;28;19909;-61
2022/09/03 02:15:20;;;;;;;;;;;;;;;;;;5064548;28;19931;-61
2022/09/03 02:17:46;;;;;;;;;;;;;;;;;;5069681;28;20420;-60
2022/09/03 02:20:11;;;;;;;;;;;;;;;;;;5045087;28;20452;-60
2022/09/03 02:22:36;;;;;;;;;;;;;;;;;;5053831;28;19917;-61
2022/09/03 02:25:01;;;;;;;;;;;;;;;;;;5067147;28;19912;-60
2022/09/03 02:27:26;;;;;;;;;;;;;;;;;;5054228;28;19913;-61
2022/09/03 02:29:51;;;;;;;;;;;;;;;;;;5060182;28;19918;-61
2022/09/03 02:32:16;;;;;;;;;;;;;;;;;;5043438;28;19956;-62
2022/09/03 02:34:42;;;;;;;;;;;;;;;;;;5047559;28;19938;-61
2022/09/03 02:37:08;;;;;;;;;;;;;;;;;;5046972;28;19912;-61
2022/09/03 02:39:33;;;;;;;;;;;;;;;;;;5069498;28;19935;-60
2022/09/03 02:41:58;;;;;;;;;;;;;;;;;;5045682;28;19917;-61
2022/09/03 02:44:25;;;;;;;;;;;;;;;;;;5054015;28;19952;-61
2022/09/03 02:46:50;;;;;;;;;;;;;;;;;;5053548;28;20357;-61
2022/09/03 02:49:15;;;;;;;;;;;;;;;;;;5061136;28;20003;-61
2022/09/03 02:51:40;;;;;;;;;;;;;;;;;;5055243;28;19917;-61
2022/09/03 02:54:05;;;;;;;;;;;;;;;;;;5050286;28;19916;-61
2022/09/03 02:56:31;;;;;;;;;;;;;;;;;;5063848;28;19920;-60
2022/09/03 02:58:56;;;;;;;;;;;;;;;;;;5065705;28;19948;-61
2022/09/03 03:01:21;;;;;;;;;;;;;;;;;;5053238;28;19923;-60
2022/09/03 03:03:46;;;;;;;;;;;;;;;;;;5065901;28;19913;-61
2022/09/03 03:06:12;;;;;;;;;;;;;;;;;;5062685;28;20054;-60
2022/09/03 03:08:37;;;;;;;;;;;;;;;;;;5044517;28;19913;-61
2022/09/03 03:11:03;;;;;;;;;;;;;;;;;;5055719;28;19912;-61
2022/09/03 03:13:28;;;;;;;;;;;;;;;;;;5046142;28;19939;-61
2022/09/03 03:15:53;;;;;;;;;;;;;;;;;;5077993;28;19920;-61
2022/09/03 03:18:19;;;;;;;;;;;;;;;;;;5087245;28;19977;-61
2022/09/03 03:20:44;;;;;;;;;;;;;;;;;;5086652;28;19913;-61
2022/09/03 03:23:09;;;;;;;;;;;;;;;;;;5087774;28;19939;-61
2022/09/03 03:25:34;;;;;;;;;;;;;;;;;;5080641;28;20338;-61
2022/09/03 03:27:59;;;;;;;;;;;;;;;;;;5074107;28;20015;-61
2022/09/03 03:30:25;;;;;;;;;;;;;;;;;;5055045;28;19916;-61
2022/09/03 03:32:50;;;;;;;;;;;;;;;;;;5073320;28;20409;-60
2022/09/03 03:35:15;;;;;;;;;;;;;;;;;;5081592;28;20002;-61
2022/09/03 03:37:40;;;;;;;;;;;;;;;;;;5080867;28;19981;-61
2022/09/03 03:40:06;;;;;;;;;;;;;;;;;;5072854;28;19927;-61
2022/09/03 03:42:31;;;;;;;;;;;;;;;;;;5075531;28;20372;-61
2022/09/03 03:44:57;;;;;;;;;;;;;;;;;;5072212;28;19927;-61
2022/09/03 03:47:22;;;;;;;;;;;;;;;;;;5086094;28;19935;-61
2022/09/03 03:49:47;;;;;;;;;;;;;;;;;;5079991;28;19957;-61
2022/09/03 03:52:12;;;;;;;;;;;;;;;;;;5091134;28;21323;-61
2022/09/03 03:54:37;;;;;;;;;;;;;;;;;;5086310;28;19908;-61
2022/09/03 03:57:03;;;;;;;;;;;;;;;;;;5072382;28;19913;-60
2022/09/03 03:59:28;;;;;;;;;;;;;;;;;;5081176;28;20350;-61
2022/09/03 04:01:53;;;;;;;;;;;;;;;;;;5071736;28;19920;-61
2022/09/03 04:04:18;;;;;;;;;;;;;;;;;;5075501;28;19923;-61
2022/09/03 04:06:44;;;;;;;;;;;;;;;;;;5075002;28;19938;-61
2022/09/03 04:09:09;;;;;;;;;;;;;;;;;;5078221;28;19908;-61
2022/09/03 04:11:34;;;;;;;;;;;;;;;;;;5087544;28;19946;-61
2022/09/03 04:13:59;;;;;;;;;;;;;;;;;;5073841;28;20319;-61
2022/09/03 04:16:24;;;;;;;;;;;;;;;;;;5076360;28;20438;-61
2022/09/03 04:18:50;;;;;;;;;;;;;;;;;;5087911;28;19918;-62
2022/09/03 04:21:15;;;;;;;;;;;;;;;;;;5084261;28;19964;-61
2022/09/03 04:23:40;;;;;;;;;;;;;;;;;;5085301;28;19916;-61
2022/09/03 04:26:05;;;;;;;;;;;;;;;;;;5071794;28;19952;-61
2022/09/03 04:28:30;;;;;;;;;;;;;;;;;;5074643;28;19916;-62
2022/09/03 04:30:56;;;;;;;;;;;;;;;;;;5075399;28;20386;-62
2022/09/03 04:33:21;;;;;;;;;;;;;;;;;;5071331;28;19955;-62
2022/09/03 04:35:46;;;;;;;;;;;;;;;;;;5085164;28;20300;-61
2022/09/03 04:38:11;;;;;;;;;;;;;;;;;;5058907;28;19918;-62
2022/09/03 04:40:36;;;;;;;;;;;;;;;;;;5065230;28;19958;-61
2022/09/03 04:43:02;;;;;;;;;;;;;;;;;;5081737;28;19919;-61
2022/09/03 04:45:27;;;;;;;;;;;;;;;;;;5072897;28;19912;-61
2022/09/03 04:47:52;;;;;;;;;;;;;;;;;;5082101;28;19916;-61
2022/09/03 04:50:18;;;;;;;;;;;;;;;;;;5079080;28;19908;-61
2022/09/03 04:52:43;;;;;;;;;;;;;;;;;;5087193;28;19994;-61
2022/09/03 04:55:09;;;;;;;;;;;;;;;;;;5080216;28;19935;-61
2022/09/03 04:57:36;;;;;;;;;;;;;;;;;;5074047;28;20016;-61
2022/09/03 05:00:01;;;;;;;;;;;;;;;;;;5061373;28;19923;-61
2022/09/03 05:02:26;;;;;;;;;;;;;;;;;;5060775;28;20286;-61
2022/09/03 05:04:52;;;;;;;;;;;;;;;;;;5071482;28;20363;-60
2022/09/03 05:07:19;;;;;;;;;;;;;;;;;;5069232;28;20335;-61
2022/09/03 05:09:44;;;;;;;;;;;;;;;;;;5076184;28;20006;-61
2022/09/03 05:12:10;;;;;;;;;;;;;;;;;;5083621;28;20316;-61
2022/09/03 05:14:35;;;;;;;;;;;;;;;;;;5085780;28;19908;-61
2022/09/03 05:17:00;;;;;;;;;;;;;;;;;;5068758;28;19916;-61
2022/09/03 05:19:25;;;;;;;;;;;;;;;;;;5055071;28;19913;-58
2022/09/03 05:21:50;;;;;;;;;;;;;;;;;;5050459;28;19917;-61
2022/09/03 05:24:16;;;;;;;;;;;;;;;;;;5073493;28;19923;-61
2022/09/03 05:26:41;;;;;;;;;;;;;;;;;;5073086;28;20012;-61
2022/09/03 05:29:06;;;;;;;;;;;;;;;;;;5064594;28;19912;-62
2022/09/03 05:31:32;;;;;;;;;;;;;;;;;;5068634;28;20002;-62
2022/09/03 05:33:58;;;;;;;;;;;;;;;;;;5066151;28;19976;-62
2022/09/03 05:36:23;;;;;;;;;;;;;;;;;;5040088;28;19913;-62
2022/09/03 05:38:48;;;;;;;;;;;;;;;;;;5057860;28;19940;-61
2022/09/03 05:41:14;;;;;;;;;;;;;;;;;;5058893;28;19916;-62
2022/09/03 05:43:39;;;;;;;;;;;;;;;;;;5055080;28;19916;-62
2022/09/03 05:46:04;;;;;;;;;;;;;;;;;;5053215;28;20328;-61
2022/09/03 05:48:29;;;;;;;;;;;;;;;;;;5042720;28;19913;-61
2022/09/03 05:50:54;;;;;;;;;;;;;;;;;;5063567;28;20003;-62
2022/09/03 05:53:20;;;;;;;;;;;;;;;;;;5060748;28;20510;-61
2022/09/03 05:55:45;;;;;;;;;;;;;;;;;;5053626;28;19916;-62
2022/09/03 05:58:10;;;;;;;;;;;;;;;;;;5058607;28;19921;-61
2022/09/03 06:00:36;;;;;;;;;;;;;;;;;;5050637;28;20379;-59
2022/09/03 06:03:01;;;;;;;;;;;;;;;;;;5056355;28;20443;-61
2022/09/03 06:05:26;;;;;;;;;;;;;;;;;;5049672;28;19968;-62
2022/09/03 06:07:51;;;;;;;;;;;;;;;;;;5052087;28;20002;-61
2022/09/03 06:10:16;;;;;;;;;;;;;;;;;;5064035;28;20380;-61
2022/09/03 06:12:43;;;;;;;;;;;;;;;;;;5053068;28;19951;-61
2022/09/03 06:15:08;;;;;;;;;;;;;;;;;;5039247;28;20007;-61
2022/09/03 06:17:34;;;;;;;;;;;;;;;;;;5068643;28;20019;-61
2022/09/03 06:19:59;;;;;;;;;;;;;;;;;;5068713;28;19917;-61
2022/09/03 06:22:27;;;;;;;;;;;;;;;;;;5059569;28;19924;-61
2022/09/03 06:24:53;;;;;;;;;;;;;;;;;;5053389;28;19917;-61
2022/09/03 06:27:20;;;;;;;;;;;;;;;;;;5059263;28;19923;-60
2022/09/03 06:29:45;;;;;;;;;;;;;;;;;;5060051;28;19999;-61
2022/09/03 06:32:10;;;;;;;;;;;;;;;;;;5059023;28;20011;-60
2022/09/03 06:34:35;;;;;;;;;;;;;;;;;;5053326;28;20518;-60
2022/09/03 06:37:00;;;;;;;;;;;;;;;;;;5059262;28;20333;-60
2022/09/03 06:39:25;;;;;;;;;;;;;;;;;;5057417;28;19970;-64
2022/09/03 06:41:51;;;;;;;;;;;;;;;;;;5072304;28;20263;-60
2022/09/03 06:44:16;;;;;;;;;;;;;;;;;;5053785;28;19960;-60
2022/09/03 06:46:41;;;;;;;;;;;;;;;;;;5059708;28;19917;-61
2022/09/03 06:49:07;;;;;;;;;;;;;;;;;;5055040;28;19913;-60
2022/09/03 06:51:32;;;;;;;;;;;;;;;;;;5056807;28;19916;-59
2022/09/03 06:53:57;;;;;;;;;;;;;;;;;;5062414;28;19944;-60
2022/09/03 06:56:25;;;;;;;;;;;;;;;;;;5068172;28;20390;-60
2022/09/03 06:58:50;;;;;;;;;;;;;;;;;;5060775;28;19917;-60
2022/09/03 07:01:16;;;;;;;;;;;;;;;;;;5051619;28;19962;-61
2022/09/03 07:03:41;;;;;;;;;;;;;;;;;;5053945;28;19916;-61
2022/09/03 07:06:06;;;;;;;;;;;;;;;;;;5050937;28;19917;-60
2022/09/03 07:08:32;;;;;;;;;;;;;;;;;;5058486;28;20328;-60
2022/09/03 07:10:57;;;;;;;;;;;;;;;;;;5049018;28;19916;-60
2022/09/03 07:13:23;;;;;;;;;;;;;;;;;;5054448;28;20373;-61
2022/09/03 07:15:48;;;;;;;;;;;;;;;;;;5069743;28;19920;-61
2022/09/03 07:18:14;;;;;;;;;;;;;;;;;;5084591;28;20359;-60
2022/09/03 07:20:39;;;;;;;;;;;;;;;;;;5080670;28;19948;-61
2022/09/03 07:23:04;;;;;;;;;;;;;;;;;;5075351;28;20375;-61
2022/09/03 07:25:31;;;;;;;;;;;;;;;;;;5092735;28;20273;-61
2022/09/03 07:27:57;;;;;;;;;;;;;;;;;;5090056;28;19923;-60
2022/09/03 07:30:22;;;;;;;;;;;;;;;;;;5081159;28;19924;-61
2022/09/03 07:32:50;;;;;;;;;;;;;;;;;;5077049;28;19917;-59
2022/09/03 07:35:15;;;;;;;;;;;;;;;;;;5072986;28;19989;-61
2022/09/03 07:37:41;;;;;;;;;;;;;;;;;;5072899;28;19913;-59
2022/09/03 07:40:06;;;;;;;;;;;;;;;;;;5081626;28;20053;-60
2022/09/03 07:42:31;;;;;;;;;;;;;;;;;;5071881;28;20261;-60
2022/09/03 07:44:57;;;;;;;;;;;;;;;;;;5066708;28;19912;-71
2022/09/03 07:47:25;;;;;;;;;;;;;;;;;;5061012;28;19966;-70
2022/09/03 07:49:50;;;;;;;;;;;;;;;;;;5053581;28;20383;-71
2022/09/03 07:52:15;;;;;;;;;;;;;;;;;;5072582;28;19913;-69
2022/09/03 07:54:40;;;;;;;;;;;;;;;;;;5075378;28;19913;-70
2022/09/03 07:57:06;;;;;;;;;;;;;;;;;;5074169;28;20330;-71
2022/09/03 07:59:31;;;;;;;;;;;;;;;;;;5078359;28;19916;-70
2022/09/03 08:01:56;;;;;;;;;;;;;;;;;;5055420;28;20089;-69
2022/09/03 08:04:21;;;;;;;;;;;;;;;;;;5072692;28;19927;-71
2022/09/03 08:06:47;;;;;;;;;;;;;;;;;;5073322;28;19916;-70
2022/09/03 08:09:12;;;;;;;;;;;;;;;;;;5074225;28;19913;-69
2022/09/03 08:11:37;;;;;;;;;;;;;;;;;;5073073;28;19938;-68
2022/09/03 08:14:05;;;;;;;;;;;;;;;;;;5053623;28;19913;-71
2022/09/03 08:16:30;;;;;;;;;;;;;;;;;;5069118;28;19932;-69
2022/09/03 08:18:55;;;;;;;;;;;;;;;;;;5054574;28;19962;-70
2022/09/03 08:21:20;;;;;;;;;;;;;;;;;;5073042;28;19916;-70
2022/09/03 08:23:45;;;;;;;;;;;;;;;;;;5071462;28;20087;-70
2022/09/03 08:26:10;;;;;;;;;;;;;;;;;;5073370;28;19923;-69
2022/09/03 08:28:35;;;;;;;;;;;;;;;;;;5087746;28;20027;-70
2022/09/03 08:31:01;;;;;;;;;;;;;;;;;;5080414;28;19920;-69
2022/09/03 08:33:38;;;;;;;;;;;;;;;;;;5085701;28;20269;-66
2022/09/03 08:36:03;;;;;;;;;;;;;;;;;;5071260;28;19961;-70
2022/09/03 08:38:29;;;;;;;;;;;;;;;;;;5057500;28;20003;-69
2022/09/03 08:40:54;;;;;;;;;;;;;;;;;;5094769;28;19912;-70
2022/09/03 08:43:19;;;;;;;;;;;;;;;;;;5090956;28;19978;-68
2022/09/03 08:45:45;;;;;;;;;;;;;;;;;;5079388;28;19913;-68
2022/09/03 08:48:10;;;;;;;;;;;;;;;;;;5058811;28;20357;-69
2022/09/03 08:50:35;;;;;;;;;;;;;;;;;;5066777;28;19923;-70
2022/09/03 08:53:00;;;;;;;;;;;;;;;;;;5087160;28;19908;-69
2022/09/03 08:55:26;;;;;;;;;;;;;;;;;;5082857;28;19916;-69
2022/09/03 08:57:51;;;;;;;;;;;;;;;;;;5083443;28;20299;-68
2022/09/03 09:00:16;;;;;;;;;;;;;;;;;;5060984;28;19912;-67
2022/09/03 09:02:41;;;;;;;;;;;;;;;;;;5072134;28;20015;-68
2022/09/03 09:05:06;;;;;;;;;;;;;;;;;;5069363;28;19923;-68
2022/09/03 09:07:32;;;;;;;;;;;;;;;;;;5087487;28;19919;-69
2022/09/03 09:09:57;;;;;;;;;;;;;;;;;;5078725;28;20333;-69
2022/09/03 09:12:22;;;;;;;;;;;;;;;;;;5065313;28;20864;-67
2022/09/03 09:14:47;;;;;;;;;;;;;;;;;;5069352;28;19924;-69
2022/09/03 09:17:12;;;;;;;;;;;;;;;;;;5045195;28;22744;-69
2022/09/03 09:19:38;;;;;;;;;;;;;;;;;;5054864;28;19912;-68
2022/09/03 09:22:03;;;;;;;;;;;;;;;;;;5064300;28;19939;-70
2022/09/03 09:24:28;;;;;;;;;;;;;;;;;;5039434;28;19924;-69
2022/09/03 09:26:53;;;;;;;;;;;;;;;;;;5073530;28;19912;-70
2022/09/03 09:29:18;;;;;;;;;;;;;;;;;;5063652;28;19970;-68
2022/09/03 09:31:44;;;;;;;;;;;;;;;;;;5058783;28;19952;-69
2022/09/03 09:34:09;;;;;;;;;;;;;;;;;;5063063;28;19958;-65
2022/09/03 09:36:34;;;;;;;;;;;;;;;;;;5068331;28;19920;-67
2022/09/03 09:39:02;;;;;;;;;;;;;;;;;;5062741;28;19913;-67
2022/09/03 09:41:28;;;;;;;;;;;;;;;;;;5062348;28;19917;-67
2022/09/03 09:43:53;;;;;;;;;;;;;;;;;;5070039;28;19919;-69
2022/09/03 09:46:18;;;;;;;;;;;;;;;;;;5054851;28;19925;-69
2022/09/03 09:48:45;;;;;;;;;;;;;;;;;;5064414;28;19913;-67
2022/09/03 09:51:10;;;;;;;;;;;;;;;;;;5060190;28;19915;-67
2022/09/03 09:53:35;;;;;;;;;;;;;;;;;;5069408;28;19912;-68
2022/09/03 09:56:03;;;;;;;;;;;;;;;;;;5066513;28;19912;-68
2022/09/03 09:58:32;;;;;;;;;;;;;;;;;;5045098;28;19919;-68
2022/09/03 10:00:57;;;;;;;;;;;;;;;;;;5067863;28;19912;-68
2022/09/03 10:03:23;;;;;;;;;;;;;;;;;;5040878;28;19919;-66
2022/09/03 10:05:48;;;;;;;;;;;;;;;;;;5067740;28;19916;-71
2022/09/03 10:08:13;;;;;;;;;;;;;;;;;;5066948;28;20381;-68
2022/09/03 10:10:38;;;;;;;;;;;;;;;;;;5068291;28;19959;-70
2022/09/03 10:13:04;;;;;;;;;;;;;;;;;;5072436;28;19927;-69
2022/09/03 10:15:29;;;;;;;;;;;;;;;;;;5065296;28;20385;-69
2022/09/03 10:17:55;;;;;;;;;;;;;;;;;;5080398;28;20022;-70
2022/09/03 10:20:26;;;;;;;;;;;;;;;;;;5078467;28;19921;-71
2022/09/03 10:22:51;;;;;;;;;;;;;;;;;;5075623;28;19947;-67
2022/09/03 10:25:16;;;;;;;;;;;;;;;;;;5081832;28;19923;-68
2022/09/03 10:27:43;;;;;;;;;;;;;;;;;;5067570;28;19919;-69
2022/09/03 10:30:09;;;;;;;;;;;;;;;;;;5076356;28;19912;-68
2022/09/03 10:32:34;;;;;;;;;;;;;;;;;;5081212;28;19951;-68
2022/09/03 10:34:59;;;;;;;;;;;;;;;;;;5078985;28;19912;-68
2022/09/03 10:37:24;;;;;;;;;;;;;;;;;;5077171;28;19912;-69
2022/09/03 10:39:49;;;;;;;;;;;;;;;;;;5072443;28;20296;-69
2022/09/03 10:42:15;;;;;;;;;;;;;;;;;;5073383;28;21266;-70
2022/09/03 10:44:41;;;;;;;;;;;;;;;;;;5070807;28;19912;-70
2022/09/03 10:47:06;;;;;;;;;;;;;;;;;;5074137;28;20001;-67
2022/09/03 10:49:31;;;;;;;;;;;;;;;;;;5066208;28;19923;-69
2022/09/03 10:51:56;;;;;;;;;;;;;;;;;;5075044;28;19912;-68
2022/09/03 10:54:23;;;;;;;;;;;;;;;;;;5083387;28;19917;-68
2022/09/03 10:56:49;;;;;;;;;;;;;;;;;;5073041;28;20340;-69
2022/09/03 10:59:14;;;;;;;;;;;;;;;;;;5078383;28;20003;-69
2022/09/03 11:01:40;;;;;;;;;;;;;;;;;;5087320;28;20067;-70
2022/09/03 11:04:05;;;;;;;;;;;;;;;;;;5077775;28;19980;-69
2022/09/03 11:06:30;;;;;;;;;;;;;;;;;;5078398;28;19999;-70
2022/09/03 11:08:58;;;;;;;;;;;;;;;;;;5084892;28;19912;-68
2022/09/03 11:11:25;;;;;;;;;;;;;;;;;;5062818;28;20494;-68
2022/09/03 11:13:50;;;;;;;;;;;;;;;;;;5089318;28;19912;-68
2022/09/03 11:16:17;;;;;;;;;;;;;;;;;;5073730;28;19920;-69
2022/09/03 11:18:42;;;;;;;;;;;;;;;;;;5083706;28;19920;-68
2022/09/03 11:21:09;;;;;;;;;;;;;;;;;;5073041;28;19973;-70
2022/09/03 11:23:38;;;;;;;;;;;;;;;;;;5083852;28;19919;-70
2022/09/03 11:26:03;;;;;;;;;;;;;;;;;;5077591;28;19912;-70
2022/09/03 11:28:30;;;;;;;;;;;;;;;;;;5085215;28;20394;-68
2022/09/03 11:30:56;;;;;;;;;;;;;;;;;;5089372;28;19912;-70
2022/09/03 11:33:21;;;;;;;;;;;;;;;;;;5089299;28;19912;-69
2022/09/03 11:35:46;;;;;;;;;;;;;;;;;;5084467;28;19912;-70
2022/09/03 11:38:12;;;;;;;;;;;;;;;;;;5070263;28;19920;-69
2022/09/03 11:40:37;;;;;;;;;;;;;;;;;;5082642;28;19987;-70
2022/09/03 11:43:02;;;;;;;;;;;;;;;;;;5074119;28;20092;-70
2022/09/03 11:45:30;;;;;;;;;;;;;;;;;;5081116;28;20261;-69
2022/09/03 11:47:56;;;;;;;;;;;;;;;;;;5089431;28;20395;-69
2022/09/03 11:50:21;;;;;;;;;;;;;;;;;;5086899;28;19912;-68
2022/09/03 11:52:46;;;;;;;;;;;;;;;;;;5087727;28;20410;-69
2022/09/03 11:55:11;;;;;;;;;;;;;;;;;;5075113;28;19916;-68
2022/09/03 11:57:36;;;;;;;;;;;;;;;;;;5077483;28;19913;-69
2022/09/03 12:00:02;;;;;;;;;;;;;;;;;;5073593;28;19970;-69
2022/09/03 12:02:27;;;;;;;;;;;;;;;;;;5085390;28;19922;-69
2022/09/03 12:04:52;;;;;;;;;;;;;;;;;;5074429;28;19913;-68
2022/09/03 12:07:17;;;;;;;;;;;;;;;;;;5065383;28;19913;-68
2022/09/03 12:09:43;;;;;;;;;;;;;;;;;;5071776;28;19920;-68
2022/09/03 12:12:08;;;;;;;;;;;;;;;;;;5082002;28;20227;-68
2022/09/03 12:14:34;;;;;;;;;;;;;;;;;;5076178;28;20030;-68
2022/09/03 12:16:59;;;;;;;;;;;;;;;;;;5077073;28;19917;-68
2022/09/03 12:19:24;;;;;;;;;;;;;;;;;;5080017;28;19909;-69
2022/09/03 12:21:49;;;;;;;;;;;;;;;;;;5092027;28;19917;-67
2022/09/03 12:24:15;;;;;;;;;;;;;;;;;;5086105;28;20003;-69
2022/09/03 12:26:40;;;;;;;;;;;;;;;;;;5084697;28;20045;-68
2022/09/03 12:29:05;;;;;;;;;;;;;;;;;;5086313;28;20372;-69
2022/09/03 12:31:31;;;;;;;;;;;;;;;;;;5092009;28;20276;-69
2022/09/03 12:33:57;;;;;;;;;;;;;;;;;;5054272;28;20219;-69
2022/09/03 12:36:23;;;;;;;;;;;;;;;;;;5084854;28;19920;-69
2022/09/03 12:38:48;;;;;;;;;;;;;;;;;;5084757;28;20337;-66
2022/09/03 12:41:13;;;;;;;;;;;;;;;;;;5074211;28;19920;-69
2022/09/03 12:43:38;;;;;;;;;;;;;;;;;;5090201;28;20292;-69
2022/09/03 12:46:04;;;;;;;;;;;;;;;;;;5059334;28;19913;-69
2022/09/03 12:48:29;;;;;;;;;;;;;;;;;;5077990;28;19916;-69
2022/09/03 12:50:55;;;;;;;;;;;;;;;;;;5070587;28;20369;-69
2022/09/03 12:53:20;;;;;;;;;;;;;;;;;;5071213;28;20015;-69
2022/09/03 12:55:45;;;;;;;;;;;;;;;;;;5057421;28;19912;-69
2022/09/03 12:58:10;;;;;;;;;;;;;;;;;;5078170;28;19912;-69
2022/09/03 13:00:35;;;;;;;;;;;;;;;;;;5085252;28;19912;-69
2022/09/03 13:03:00;;;;;;;;;;;;;;;;;;5087296;28;19959;-69
2022/09/03 13:05:25;;;;;;;;;;;;;;;;;;5067674;28;19912;-70
2022/09/03 13:07:51;;;;;;;;;;;;;;;;;;5060468;28;20284;-67
2022/09/03 13:10:17;;;;;;;;;;;;;;;;;;5089465;28;19912;-68
2022/09/03 13:12:43;;;;;;;;;;;;;;;;;;5086723;28;19924;-68
2022/09/03 13:15:08;;;;;;;;;;;;;;;;;;5067767;28;19924;-67
2022/09/03 13:17:34;;;;;;;;;;;;;;;;;;5078115;28;19951;-68
2022/09/03 13:19:59;;;;;;;;;;;;;;;;;;5077063;28;20015;-68
2022/09/03 13:22:24;;;;;;;;;;;;;;;;;;5079018;28;20073;-68
2022/09/03 13:24:49;;;;;;;;;;;;;;;;;;5063274;28;19913;-68
2022/09/03 13:27:17;;;;;;;;;;;;;;;;;;5070337;28;20358;-69
2022/09/03 13:29:42;;;;;;;;;;;;;;;;;;5090595;28;19916;-69
2022/09/03 13:32:07;;;;;;;;;;;;;;;;;;5088987;28;19917;-69
2022/09/03 13:34:32;;;;;;;;;;;;;;;;;;5075203;28;19962;-68
2022/09/03 13:36:58;;;;;;;;;;;;;;;;;;5087136;28;19916;-68
2022/09/03 13:39:23;;;;;;;;;;;;;;;;;;5094063;28;19908;-69
2022/09/03 13:41:49;;;;;;;;;;;;;;;;;;5093016;28;19916;-66
2022/09/03 13:44:14;;;;;;;;;;;;;;;;;;5083019;28;19963;-69
2022/09/03 13:46:39;;;;;;;;;;;;;;;;;;5075235;28;19919;-69
2022/09/03 13:51:49;;;;;;;;;;;;;;;;;;5076133;28;20414;-69
2022/09/03 13:54:14;;;;;;;;;;;;;;;;;;5080082;28;19916;-69
2022/09/03 13:56:39;;;;;;;;;;;;;;;;;;5088835;28;19920;-69
2022/09/03 13:59:06;;;;;;;;;;;;;;;;;;5057072;28;20318;-69
2022/09/03 14:01:31;;;;;;;;;;;;;;;;;;5089292;28;19916;-69
2022/09/03 14:03:56;;;;;;;;;;;;;;;;;;5090812;28;19919;-69
2022/09/03 14:06:21;;;;;;;;;;;;;;;;;;5074036;28;19912;-68
2022/09/03 14:08:52;;;;;;;;;;;;;;;;;;5084447;28;19923;-68
2022/09/03 14:11:17;;;;;;;;;;;;;;;;;;5093646;28;19954;-68
2022/09/03 14:13:42;;;;;;;;;;;;;;;;;;5093747;28;19912;-68
2022/09/03 14:16:07;;;;;;;;;;;;;;;;;;5082922;28;19959;-69
2022/09/03 14:18:32;;;;;;;;;;;;;;;;;;5082220;28;19957;-68
2022/09/03 14:20:58;;;;;;;;;;;;;;;;;;5074726;28;19913;-69
2022/09/03 14:23:23;;;;;;;;;;;;;;;;;;5092193;28;19908;-69
2022/09/03 14:25:48;;;;;;;;;;;;;;;;;;5092741;28;19912;-69
2022/09/03 14:28:13;;;;;;;;;;;;;;;;;;5076988;28;19920;-68
2022/09/03 14:30:38;;;;;;;;;;;;;;;;;;5086852;28;20019;-69
2022/09/03 14:33:03;;;;;;;;;;;;;;;;;;5063078;28;20274;-69
2022/09/03 14:35:28;;;;;;;;;;;;;;;;;;5072726;28;19946;-69
2022/09/03 14:37:54;;;;;;;;;;;;;;;;;;5073783;28;20284;-68
2022/09/03 14:40:19;;;;;;;;;;;;;;;;;;5079634;28;19960;-68
2022/09/03 14:42:44;;;;;;;;;;;;;;;;;;5083729;28;19920;-69
2022/09/03 14:45:11;;;;;;;;;;;;;;;;;;5075548;28;19931;-67
2022/09/03 14:47:36;;;;;;;;;;;;;;;;;;5065806;28;20372;-69
2022/09/03 14:50:01;;;;;;;;;;;;;;;;;;5082975;28;19935;-68
2022/09/03 14:52:26;;;;;;;;;;;;;;;;;;5075094;28;19909;-69
2022/09/03 14:54:51;;;;;;;;;;;;;;;;;;5087599;28;20335;-69
2022/09/03 14:57:17;;;;;;;;;;;;;;;;;;5090605;28;20318;-68
2022/09/03 14:59:42;;;;;;;;;;;;;;;;;;5075352;28;19917;-67
2022/09/03 15:02:07;;;;;;;;;;;;;;;;;;5076620;28;21401;-68
2022/09/03 15:04:33;;;;;;;;;;;;;;;;;;5083941;28;19919;-69
2022/09/03 15:06:58;;;;;;;;;;;;;;;;;;5079846;28;20374;-69
2022/09/03 15:09:23;;;;;;;;;;;;;;;;;;5086233;28;19957;-68
2022/09/03 15:11:48;;;;;;;;;;;;;;;;;;5092753;28;20014;-69
2022/09/03 15:14:14;;;;;;;;;;;;;;;;;;5088345;28;19912;-68
2022/09/03 15:16:39;;;;;;;;;;;;;;;;;;5070323;28;20235;-68
2022/09/03 15:19:04;;;;;;;;;;;;;;;;;;5086605;28;19920;-67
2022/09/03 15:21:30;;;;;;;;;;;;;;;;;;5090665;28;19919;-69
2022/09/03 15:23:55;;;;;;;;;;;;;;;;;;5089375;28;19908;-68
2022/09/03 15:26:20;;;;;;;;;;;;;;;;;;5090623;28;19920;-67
2022/09/03 15:28:45;;;;;;;;;;;;;;;;;;5091235;28;19912;-68
2022/09/03 15:31:10;;;;;;;;;;;;;;;;;;5055336;28;19912;-69
2022/09/03 15:33:35;;;;;;;;;;;;;;;;;;5087750;28;19943;-69
2022/09/03 15:36:01;;;;;;;;;;;;;;;;;;5074064;28;19916;-68
2022/09/03 15:38:26;;;;;;;;;;;;;;;;;;5082207;28;20007;-69
2022/09/03 15:40:51;;;;;;;;;;;;;;;;;;5079268;28;19916;-67
2022/09/03 15:43:16;;;;;;;;;;;;;;;;;;5075109;28;20372;-69
2022/09/03 15:45:41;;;;;;;;;;;;;;;;;;5076214;28;19923;-69
2022/09/03 15:48:06;;;;;;;;;;;;;;;;;;5089059;28;19958;-68
2022/09/03 15:50:32;;;;;;;;;;;;;;;;;;5079379;28;19912;-68
2022/09/03 15:52:57;;;;;;;;;;;;;;;;;;5069079;28;19920;-68
2022/09/03 15:55:22;;;;;;;;;;;;;;;;;;5090799;28;19945;-69
2022/09/03 15:57:47;;;;;;;;;;;;;;;;;;5084896;28;19916;-69
2022/09/03 16:00:12;;;;;;;;;;;;;;;;;;5082964;28;19927;-69
2022/09/03 16:02:38;;;;;;;;;;;;;;;;;;5083722;28;19960;-69
2022/09/03 16:05:07;;;;;;;;;;;;;;;;;;5062877;28;19921;-69
2022/09/03 16:07:33;;;;;;;;;;;;;;;;;;5080500;28;19989;-69
2022/09/03 16:09:58;;;;;;;;;;;;;;;;;;5087923;28;19919;-66
2022/09/03 16:12:24;;;;;;;;;;;;;;;;;;5065529;28;19999;-69
2022/09/03 16:14:49;;;;;;;;;;;;;;;;;;5067565;28;19931;-69
2022/09/03 16:17:14;;;;;;;;;;;;;;;;;;5077567;28;19962;-67
2022/09/03 16:19:39;;;;;;;;;;;;;;;;;;5079455;28;19948;-69
2022/09/03 16:22:04;;;;;;;;;;;;;;;;;;5089548;28;19919;-67
2022/09/03 16:24:29;;;;;;;;;;;;;;;;;;5084644;28;19919;-67
2022/09/03 16:26:55;;;;;;;;;;;;;;;;;;5074752;28;19955;-69
2022/09/03 16:29:20;;;;;;;;;;;;;;;;;;5072744;28;19913;-68
2022/09/03 16:31:45;;;;;;;;;;;;;;;;;;5080227;28;19952;-69
2022/09/03 16:34:11;;;;;;;;;;;;;;;;;;5061539;28;19912;-69
2022/09/03 16:36:37;;;;;;;;;;;;;;;;;;5082287;28;19915;-69
2022/09/03 16:39:02;;;;;;;;;;;;;;;;;;5056473;28;19916;-68